createdAt,value
2022-12-27T00:00:09.770Z,21.05
2022-12-27T00:02:43.553Z,16.80
2022-12-27T00:05:12.321Z,15.10
2022-12-27T00:07:39.884Z,16.52
2022-12-27T00:10:08.859Z,19.77
2022-12-27T00:12:37.354Z,17.20
2022-12-27T00:15:05.502Z,12.18
2022-12-27T00:17:33.606Z,14.80
2022-12-27T00:20:05.419Z,16.45
2022-12-27T00:22:40.207Z,13.65
2022-12-27T00:25:08.666Z,14.50
2022-12-27T00:27:36.612Z,15.20
2022-12-27T00:30:05.285Z,15.45
2022-12-27T00:32:33.353Z,12.48
2022-12-27T00:35:01.042Z,15.50
2022-12-27T00:37:30.928Z,17.65
2022-12-27T00:40:00.086Z,16.10
2022-12-27T00:42:27.648Z,19.63
2022-12-27T00:44:55.213Z,18.42
2022-12-27T00:47:23.373Z,15.23
2022-12-27T00:49:51.060Z,14.88
2022-12-27T00:52:18.637Z,16.92
2022-12-27T00:54:46.554Z,17.33
2022-12-27T00:57:14.072Z,16.00
2022-12-27T00:59:41.598Z,17.30
2022-12-27T01:02:09.563Z,16.85
2022-12-27T01:04:37.165Z,16.48
2022-12-27T01:07:05.202Z,15.68
2022-12-27T01:09:35.861Z,17.65
2022-12-27T01:12:04.274Z,16.60
2022-12-27T01:14:33.060Z,17.80
2022-12-27T01:17:00.612Z,19.55
2022-12-27T01:19:28.247Z,14.10
2022-12-27T01:21:55.845Z,16.55
2022-12-27T01:24:23.604Z,17.45
2022-12-27T01:26:51.108Z,14.32
2022-12-27T01:29:18.844Z,16.33
2022-12-27T01:31:46.943Z,16.08
2022-12-27T01:34:14.677Z,15.43
2022-12-27T01:36:42.934Z,16.00
2022-12-27T01:39:14.398Z,17.75
2022-12-27T01:42:03.496Z,14.00
2022-12-27T01:44:40.203Z,13.65
2022-12-27T01:47:20.873Z,14.05
2022-12-27T01:49:51.636Z,16.48
2022-12-27T01:52:19.385Z,14.63
2022-12-27T01:54:47.089Z,16.42
2022-12-27T01:57:14.722Z,15.88
2022-12-27T01:59:42.608Z,15.68
2022-12-27T02:02:10.407Z,19.05
2022-12-27T02:04:38.864Z,18.73
2022-12-27T02:07:06.717Z,18.13
2022-12-27T02:09:42.911Z,20.05
2022-12-27T02:12:11.744Z,21.25
2022-12-27T02:14:49.254Z,24.35
2022-12-27T02:17:18.704Z,19.35
2022-12-27T02:19:46.295Z,22.52
2022-12-27T02:22:56.357Z,23.95
2022-12-27T02:25:48.090Z,27.80
2022-12-27T02:28:53.253Z,21.08
2022-12-27T02:31:23.789Z,24.33
2022-12-27T02:33:53.369Z,24.38
2022-12-27T02:36:27.594Z,28.90
2022-12-27T02:38:59.146Z,25.08
2022-12-27T02:41:46.603Z,31.10
2022-12-27T02:44:57.258Z,29.52
2022-12-27T02:47:44.742Z,30.02
2022-12-27T02:50:33.441Z,27.30
2022-12-27T02:53:12.269Z,29.02
2022-12-27T02:56:10.649Z,28.70
2022-12-27T02:58:50.783Z,31.63
2022-12-27T03:01:57.348Z,25.33
2022-12-27T03:04:46.859Z,30.15
2022-12-27T03:07:17.919Z,27.88
2022-12-27T03:10:22.561Z,26.95
2022-12-27T03:13:37.991Z,27.75
2022-12-27T03:16:12.749Z,27.08
2022-12-27T03:19:08.137Z,31.98
2022-12-27T03:22:07.867Z,28.95
2022-12-27T03:24:58.472Z,26.98
2022-12-27T03:27:37.041Z,29.30
2022-12-27T03:30:26.931Z,28.50
2022-12-27T03:33:13.793Z,24.83
2022-12-27T03:36:11.715Z,22.42
2022-12-27T03:38:47.621Z,26.45
2022-12-27T03:41:39.983Z,23.08
2022-12-27T03:44:24.452Z,22.33
2022-12-27T03:47:04.680Z,25.38
2022-12-27T03:49:48.558Z,23.85
2022-12-27T03:52:29.058Z,22.90
2022-12-27T03:54:58.029Z,23.75
2022-12-27T03:57:29.019Z,21.20
2022-12-27T03:59:56.777Z,23.20
2022-12-27T04:02:25.178Z,20.88
2022-12-27T04:04:52.942Z,21.27
2022-12-27T04:07:20.432Z,22.33
2022-12-27T04:10:07.777Z,26.65
2022-12-27T04:12:54.576Z,24.65
2022-12-27T04:15:42.784Z,21.10
2022-12-27T04:18:29.299Z,21.77
2022-12-27T04:21:18.261Z,23.52
2022-12-27T04:24:04.793Z,19.52
2022-12-27T04:26:50.830Z,18.50
2022-12-27T04:29:36.837Z,15.02
2022-12-27T04:32:23.192Z,14.18
2022-12-27T04:34:50.762Z,15.35
2022-12-27T04:37:19.856Z,14.30
2022-12-27T04:40:06.985Z,12.90
2022-12-27T04:42:53.129Z,12.32
2022-12-27T04:45:39.854Z,12.65
2022-12-27T04:48:33.799Z,11.82
2022-12-27T04:51:20.472Z,13.05
2022-12-27T04:54:06.478Z,12.52
2022-12-27T04:56:34.196Z,10.57
2022-12-27T04:59:31.354Z,13.65
2022-12-27T05:02:05.564Z,10.88
2022-12-27T05:04:36.598Z,12.75
2022-12-27T05:07:26.467Z,11.65
2022-12-27T05:10:12.915Z,11.60
2022-12-27T05:12:59.304Z,13.52
2022-12-27T05:15:26.944Z,11.73
2022-12-27T05:17:54.648Z,12.07
2022-12-27T05:20:22.298Z,11.10
2022-12-27T05:23:08.307Z,17.40
2022-12-27T05:25:45.383Z,16.23
2022-12-27T05:28:13.944Z,14.38
2022-12-27T05:30:43.481Z,15.05
2022-12-27T05:33:12.176Z,13.23
2022-12-27T05:35:40.139Z,16.65
2022-12-27T05:38:07.763Z,19.63
2022-12-27T05:40:35.818Z,16.33
2022-12-27T05:43:04.197Z,14.27
2022-12-27T05:45:33.013Z,16.80
2022-12-27T05:48:00.884Z,13.80
2022-12-27T05:50:28.469Z,15.48
2022-12-27T05:53:10.927Z,15.13
2022-12-27T05:55:38.568Z,13.63
2022-12-27T05:58:07.220Z,18.98
2022-12-27T06:00:35.030Z,11.77
2022-12-27T06:03:04.088Z,12.48
2022-12-27T06:05:31.812Z,10.95
2022-12-27T06:08:00.643Z,11.80
2022-12-27T06:10:28.344Z,10.27
2022-12-27T06:12:55.873Z,12.40
2022-12-27T06:15:23.579Z,9.50
2022-12-27T06:17:51.112Z,10.48
2022-12-27T06:20:19.046Z,12.88
2022-12-27T06:22:46.657Z,11.45
2022-12-27T06:25:14.878Z,11.27
2022-12-27T06:27:42.911Z,9.33
2022-12-27T06:30:12.367Z,13.88
2022-12-27T06:35:07.775Z,12.10
2022-12-27T06:37:35.371Z,10.38
2022-12-27T06:40:03.101Z,8.85
2022-12-27T06:42:31.312Z,11.93
2022-12-27T06:44:59.108Z,9.27
2022-12-27T06:47:26.648Z,9.55
2022-12-27T06:49:55.886Z,11.75
2022-12-27T06:52:24.075Z,11.82
2022-12-27T06:54:51.767Z,13.27
2022-12-27T06:57:19.381Z,17.20
2022-12-27T06:59:50.967Z,16.20
2022-12-27T07:02:21.658Z,14.38
2022-12-27T07:04:49.405Z,14.73
2022-12-27T07:07:16.991Z,14.40
2022-12-27T07:09:44.512Z,11.27
2022-12-27T07:12:12.082Z,8.85
2022-12-27T07:14:39.985Z,13.55
2022-12-27T07:17:07.552Z,9.13
2022-12-27T07:19:35.740Z,11.07
2022-12-27T07:22:03.318Z,8.38
2022-12-27T07:24:33.330Z,6.75
2022-12-27T07:27:02.229Z,9.68
2022-12-27T07:29:30.384Z,9.52
2022-12-27T07:31:58.653Z,11.88
2022-12-27T07:34:27.121Z,13.13
2022-12-27T07:36:54.721Z,16.42
2022-12-27T07:39:22.402Z,21.05
2022-12-27T07:41:50.923Z,20.58
2022-12-27T07:44:19.375Z,26.00
2022-12-27T07:46:47.021Z,22.65
2022-12-27T07:49:17.896Z,22.20
2022-12-27T07:51:45.742Z,20.63
2022-12-27T07:54:13.438Z,22.08
2022-12-27T07:56:41.040Z,19.45
2022-12-27T07:59:13.675Z,17.27
2022-12-27T08:01:59.915Z,17.80
2022-12-27T08:04:27.921Z,11.43
2022-12-27T08:07:03.195Z,20.90
2022-12-27T08:09:34.183Z,13.38
2022-12-27T08:12:01.877Z,12.35
2022-12-27T08:14:30.263Z,10.77
2022-12-27T08:17:06.896Z,12.85
2022-12-27T08:19:35.162Z,8.55
2022-12-27T08:22:05.315Z,12.77
2022-12-27T08:24:33.133Z,8.95
2022-12-27T08:27:00.688Z,11.77
2022-12-27T08:29:28.289Z,10.43
2022-12-27T08:31:55.825Z,6.75
2022-12-27T08:34:23.440Z,6.18
2022-12-27T08:36:56.230Z,7.82
2022-12-27T08:39:24.562Z,8.10
2022-12-27T08:41:53.851Z,7.13
2022-12-27T08:44:21.928Z,7.72
2022-12-27T08:46:49.639Z,80.78
2022-12-27T08:49:17.840Z,6.55
2022-12-27T08:51:45.364Z,6.05
2022-12-27T08:54:13.312Z,10.13
2022-12-27T08:56:42.079Z,6.22
2022-12-27T08:59:09.807Z,7.97
2022-12-27T09:01:37.691Z,9.02
2022-12-27T09:04:05.506Z,7.30
2022-12-27T09:06:33.811Z,7.78
2022-12-27T09:09:01.582Z,7.43
2022-12-27T09:11:33.161Z,9.57
2022-12-27T09:14:05.983Z,9.63
2022-12-27T09:16:34.389Z,10.18
2022-12-27T09:19:03.842Z,9.30
2022-12-27T09:21:34.368Z,11.40
2022-12-27T09:24:02.765Z,9.32
2022-12-27T09:26:31.926Z,8.90
2022-12-27T09:29:00.714Z,10.02
2022-12-27T09:31:28.795Z,12.65
2022-12-27T09:33:57.103Z,16.17
2022-12-27T09:36:28.055Z,14.68
2022-12-27T09:38:57.591Z,15.48
2022-12-27T09:44:22.199Z,16.67
2022-12-27T09:46:55.361Z,14.85
2022-12-27T09:49:33.688Z,19.65
2022-12-27T09:52:08.122Z,15.35
2022-12-27T09:54:40.597Z,15.18
2022-12-27T09:57:24.716Z,17.58
2022-12-27T09:59:58.427Z,17.52
2022-12-27T10:02:28.567Z,11.90
2022-12-27T10:08:08.046Z,11.77
2022-12-27T10:10:47.480Z,21.70
2022-12-27T10:13:42.421Z,27.45
2022-12-27T10:16:25.278Z,9.60
2022-12-27T10:19:34.456Z,9.15
2022-12-27T10:22:17.203Z,8.15
2022-12-27T10:24:50.814Z,6.65
2022-12-27T10:27:23.243Z,8.70
2022-12-27T10:29:55.799Z,9.65
2022-12-27T10:32:24.036Z,9.35
2022-12-27T10:35:18.789Z,11.95
2022-12-27T10:37:47.751Z,10.30
2022-12-27T10:40:21.252Z,5.88
2022-12-27T10:43:17.008Z,11.02
2022-12-27T11:46:42.918Z,10.50
2022-12-27T11:49:28.505Z,14.15
2022-12-27T11:52:40.945Z,14.55
2022-12-27T11:55:14.373Z,14.00
2022-12-27T11:58:19.795Z,16.73
2022-12-27T12:01:25.715Z,15.73
2022-12-27T12:04:38.268Z,13.43
2022-12-27T12:07:42.389Z,16.05
2022-12-27T12:10:39.899Z,15.70
2022-12-27T12:13:20.686Z,14.52
2022-12-27T12:16:16.033Z,13.82
2022-12-27T12:18:55.525Z,20.42
2022-12-27T12:21:41.394Z,14.68
2022-12-27T12:24:33.291Z,14.32
2022-12-27T12:27:19.182Z,15.63
2022-12-27T12:30:12.063Z,14.85
2022-12-27T12:33:27.915Z,19.13
2022-12-27T12:36:06.371Z,18.48
2022-12-27T12:38:50.718Z,19.60
2022-12-27T12:41:18.510Z,17.70
2022-12-27T12:44:05.163Z,19.48
2022-12-27T12:46:41.584Z,24.50
2022-12-27T12:49:41.619Z,20.10
2022-12-27T12:52:38.115Z,17.02
2022-12-27T12:55:38.455Z,19.33
2022-12-27T12:58:28.141Z,20.27
2022-12-27T13:00:55.752Z,19.40
2022-12-27T13:03:51.903Z,20.83
2022-12-27T13:06:44.038Z,23.27
2022-12-27T13:09:21.152Z,18.45
2022-12-27T13:12:07.480Z,23.95
2022-12-27T13:14:38.838Z,26.40
2022-12-27T13:17:32.236Z,22.65
2022-12-27T13:20:23.655Z,26.92
2022-12-27T13:23:00.537Z,25.35
2022-12-27T13:25:46.257Z,25.02
2022-12-27T13:28:35.927Z,26.20
2022-12-27T13:31:22.444Z,28.40
2022-12-27T13:33:59.689Z,28.67
2022-12-27T13:36:49.715Z,26.95
2022-12-27T13:39:35.943Z,24.75
2022-12-27T13:42:35.034Z,26.50
2022-12-27T13:45:05.723Z,30.73
2022-12-27T13:47:33.374Z,26.95
2022-12-27T13:50:04.802Z,25.50
2022-12-27T13:53:06.126Z,25.73
2022-12-27T13:56:27.357Z,27.45
2022-12-27T13:59:10.517Z,25.00
2022-12-27T14:02:00.851Z,28.38
2022-12-27T14:05:05.829Z,27.23
2022-12-27T14:08:14.642Z,32.35
2022-12-27T14:10:46.425Z,25.00
2022-12-27T14:13:21.135Z,28.40
2022-12-27T14:16:00.767Z,29.40
2022-12-27T14:18:34.181Z,29.50
2022-12-27T14:21:15.421Z,28.80
2022-12-27T14:24:04.510Z,27.40
2022-12-27T14:27:10.498Z,28.88
2022-12-27T14:30:15.745Z,27.83
2022-12-27T14:33:20.916Z,23.20
2022-12-27T14:36:10.529Z,24.50
2022-12-27T14:41:42.538Z,26.38
2022-12-27T14:44:22.144Z,26.27
2022-12-27T14:47:11.670Z,29.50
2022-12-27T14:49:43.612Z,30.00
2022-12-27T14:52:39.103Z,28.20
2022-12-27T14:55:30.302Z,27.58
2022-12-27T14:58:09.951Z,32.63
2022-12-27T15:00:56.532Z,30.65
2022-12-27T15:03:47.430Z,32.15
2022-12-27T15:06:20.703Z,37.20
2022-12-27T15:08:51.175Z,31.23
2022-12-27T15:11:43.510Z,30.20
2022-12-27T15:14:41.641Z,37.28
2022-12-27T15:17:36.973Z,31.42
2022-12-27T15:20:43.455Z,35.03
2022-12-27T15:23:20.574Z,30.20
2022-12-27T15:26:04.283Z,32.60
2022-12-27T15:28:48.294Z,25.02
2022-12-27T15:31:30.036Z,31.35
2022-12-27T15:34:40.149Z,25.50
2022-12-27T15:37:46.145Z,27.27
2022-12-27T15:40:32.372Z,30.05
2022-12-27T15:43:08.725Z,25.42
2022-12-27T15:45:55.420Z,24.75
2022-12-27T15:48:35.121Z,26.83
2022-12-27T15:51:11.663Z,24.92
2022-12-27T15:54:10.802Z,22.83
2022-12-27T15:56:41.167Z,25.42
2022-12-27T15:59:46.213Z,25.45
2022-12-27T16:02:33.786Z,26.25
2022-12-27T16:05:11.046Z,32.92
2022-12-27T16:07:39.619Z,37.78
2022-12-27T16:10:32.444Z,32.08
2022-12-27T16:13:09.268Z,36.25
2022-12-27T16:15:44.827Z,32.75
2022-12-27T16:18:19.511Z,31.67
2022-12-27T16:21:01.524Z,33.97
2022-12-27T16:23:33.306Z,30.65
2022-12-27T16:26:16.522Z,35.30
2022-12-27T16:28:54.440Z,34.78
2022-12-27T16:31:31.265Z,37.45
2022-12-27T16:34:10.600Z,35.25
2022-12-27T16:36:46.490Z,35.08
2022-12-27T16:39:47.588Z,39.60
2022-12-27T16:42:18.487Z,36.58
2022-12-27T16:44:54.028Z,35.10
2022-12-27T16:47:47.695Z,34.45
2022-12-27T16:50:42.503Z,35.28
2022-12-27T16:53:23.066Z,29.65
2022-12-27T16:56:18.958Z,28.05
2022-12-27T16:58:46.744Z,33.25
2022-12-27T17:01:26.545Z,29.17
2022-12-27T17:03:56.253Z,34.63
2022-12-27T17:06:32.576Z,26.00
2022-12-27T17:09:10.253Z,28.70
2022-12-27T17:12:05.688Z,28.55
2022-12-27T17:14:38.498Z,27.45
2022-12-27T17:17:16.905Z,29.30
2022-12-27T17:20:02.082Z,30.65
2022-12-27T17:22:35.194Z,28.75
2022-12-27T17:25:04.078Z,32.35
2022-12-27T17:27:51.963Z,31.67
2022-12-27T17:30:46.679Z,31.25
2022-12-27T17:33:26.435Z,27.23
2022-12-27T17:38:24.879Z,31.55
2022-12-27T17:41:13.500Z,30.38
2022-12-27T17:44:09.466Z,31.85
2022-12-27T17:46:57.299Z,34.70
2022-12-27T17:49:31.200Z,55.05
2022-12-27T17:52:23.351Z,29.67
2022-12-27T17:55:09.520Z,28.50
2022-12-27T17:57:55.066Z,27.95
2022-12-27T18:00:26.118Z,29.65
2022-12-27T18:02:56.859Z,31.55
2022-12-27T18:05:31.032Z,25.35
2022-12-27T18:08:04.535Z,25.85
2022-12-27T18:10:36.687Z,24.83
2022-12-27T18:13:25.956Z,30.65
2022-12-27T18:15:54.584Z,26.95
2022-12-27T18:18:34.260Z,27.47
2022-12-27T18:21:04.684Z,30.20
2022-12-27T18:23:41.215Z,31.90
2022-12-27T18:26:13.985Z,29.52
2022-12-27T18:28:42.969Z,32.47
2022-12-27T18:31:16.340Z,39.38
2022-12-27T18:33:51.324Z,49.88
2022-12-27T18:36:26.105Z,41.10
2022-12-27T18:39:08.482Z,32.70
2022-12-27T18:41:40.589Z,35.35
2022-12-27T18:44:21.583Z,37.38
2022-12-27T18:46:57.866Z,36.15
2022-12-27T18:49:31.813Z,39.45
2022-12-27T18:52:00.476Z,36.20
2022-12-27T18:54:27.932Z,40.58
2022-12-27T18:56:57.119Z,43.85
2022-12-27T18:59:27.994Z,38.40
2022-12-27T19:02:02.197Z,33.35
2022-12-27T19:04:32.868Z,36.45
2022-12-27T19:07:11.600Z,31.52
2022-12-27T19:09:52.826Z,34.97
2022-12-27T19:12:28.551Z,37.13
2022-12-27T19:14:56.689Z,34.47
2022-12-27T19:17:29.760Z,39.80
2022-12-27T19:20:08.093Z,33.47
2022-12-27T19:22:48.420Z,36.20
2022-12-27T20:33:33.817Z,50.60
2022-12-27T20:36:16.124Z,42.53
2022-12-27T20:39:11.286Z,43.47
2022-12-27T20:41:50.318Z,45.88
2022-12-27T20:44:44.064Z,44.85
2022-12-27T20:47:29.542Z,43.75
2022-12-27T20:50:13.602Z,40.13
2022-12-27T20:53:06.798Z,48.10
2022-12-27T20:55:47.844Z,41.17
2022-12-27T20:58:26.860Z,40.33
2022-12-27T21:43:27.944Z,37.40
2022-12-27T21:46:36.542Z,42.03
2022-12-27T21:49:17.927Z,41.10
2022-12-27T21:51:56.335Z,31.60
2022-12-27T21:54:30.296Z,35.22
2022-12-27T21:57:08.402Z,32.15
2022-12-27T22:00:56.078Z,31.08
2022-12-27T22:03:43.879Z,28.85
